createdAt,value
2019-03-15T00:00:28.522Z,22.54
2019-03-15T00:01:28.523Z,22.47
2019-03-15T00:02:28.489Z,22.54
2019-03-15T00:03:28.499Z,22.60
2019-03-15T00:04:28.466Z,22.60
2019-03-15T00:05:28.455Z,22.56
2019-03-15T00:06:28.444Z,22.59
2019-03-15T00:07:28.433Z,22.57
2019-03-15T00:08:28.442Z,22.65
2019-03-15T00:09:28.412Z,22.57
2019-03-15T00:10:28.400Z,22.56
2019-03-15T00:11:29.340Z,22.67
2019-03-15T00:12:28.377Z,22.67
2019-03-15T00:13:28.387Z,22.65
2019-03-15T00:14:28.355Z,22.68
2019-03-15T00:15:28.344Z,22.67
2019-03-15T00:16:28.333Z,22.65
2019-03-15T00:17:28.322Z,22.69
2019-03-15T00:18:28.332Z,22.67
2019-03-15T00:19:28.299Z,22.67
2019-03-15T00:20:28.288Z,22.68
2019-03-15T00:21:28.277Z,22.64
2019-03-15T00:22:28.345Z,22.65
2019-03-15T00:23:28.275Z,22.71
2019-03-15T00:24:28.244Z,22.65
2019-03-15T00:25:28.231Z,22.77
2019-03-15T00:26:28.220Z,22.67
2019-03-15T00:27:28.209Z,22.67
2019-03-15T00:28:28.228Z,22.71
2019-03-15T00:29:28.187Z,22.77
2019-03-15T00:30:28.175Z,22.65
2019-03-15T00:31:28.179Z,22.65
2019-03-15T00:32:28.152Z,22.71
2019-03-15T00:33:28.164Z,22.69
2019-03-15T00:34:28.132Z,22.83
2019-03-15T00:35:28.119Z,22.71
2019-03-15T00:36:28.114Z,22.72
2019-03-15T00:37:28.097Z,22.82
2019-03-15T00:38:28.108Z,22.82
2019-03-15T00:39:28.074Z,22.74
2019-03-15T00:40:28.064Z,22.78
2019-03-15T00:41:28.054Z,22.78
2019-03-15T00:42:28.062Z,22.82
2019-03-15T00:43:28.031Z,22.83
2019-03-15T00:44:28.041Z,22.78
2019-03-15T00:45:28.010Z,22.84
2019-03-15T00:46:27.997Z,22.80
2019-03-15T00:47:27.986Z,22.82
2019-03-15T00:48:27.975Z,22.82
2019-03-15T00:49:27.985Z,22.84
2019-03-15T00:50:27.952Z,22.80
2019-03-15T00:51:27.943Z,22.84
2019-03-15T00:52:27.934Z,22.86
2019-03-15T00:53:27.919Z,22.84
2019-03-15T00:54:28.062Z,22.80
2019-03-15T00:55:27.897Z,22.83
2019-03-15T00:56:27.886Z,22.67
2019-03-15T00:57:27.874Z,22.87
2019-03-15T00:58:27.869Z,22.84
2019-03-15T00:59:28.070Z,22.84
2019-03-15T01:00:27.848Z,22.80
2019-03-15T01:01:27.830Z,22.71
2019-03-15T01:02:27.820Z,22.84
2019-03-15T01:03:27.813Z,22.71
2019-03-15T01:04:27.817Z,22.83
2019-03-15T01:05:27.788Z,22.77
2019-03-15T01:06:27.775Z,22.84
2019-03-15T01:07:27.767Z,22.84
2019-03-15T01:08:27.752Z,22.75
2019-03-15T01:09:27.762Z,22.84
2019-03-15T01:10:27.755Z,22.89
2019-03-15T01:11:27.803Z,22.84
2019-03-15T01:12:27.707Z,22.72
2019-03-15T01:13:27.697Z,22.68
2019-03-15T01:14:27.707Z,22.89
2019-03-15T01:15:27.674Z,22.89
2019-03-15T01:16:27.664Z,22.84
2019-03-15T01:17:27.652Z,22.86
2019-03-15T01:18:27.641Z,22.83
2019-03-15T01:19:27.651Z,22.84
2019-03-15T01:20:27.623Z,22.80
2019-03-15T01:21:27.615Z,22.84
2019-03-15T01:22:27.597Z,22.84
2019-03-15T01:23:27.585Z,22.80
2019-03-15T01:24:27.595Z,22.84
2019-03-15T01:25:27.565Z,22.86
2019-03-15T01:26:27.551Z,22.72
2019-03-15T01:27:27.544Z,22.72
2019-03-15T01:28:27.530Z,22.90
2019-03-15T01:29:27.540Z,22.82
2019-03-15T01:30:27.509Z,22.87
2019-03-15T01:31:27.495Z,22.86
2019-03-15T01:32:27.485Z,22.84
2019-03-15T01:33:27.473Z,22.68
2019-03-15T01:34:27.484Z,22.68
2019-03-15T01:35:27.451Z,22.78
2019-03-15T01:36:27.444Z,22.78
2019-03-15T01:37:27.429Z,22.86
2019-03-15T01:38:27.439Z,22.84
2019-03-15T01:39:27.407Z,22.90
2019-03-15T01:40:27.417Z,22.71
2019-03-15T01:41:27.386Z,22.75
2019-03-15T01:42:27.374Z,22.87
2019-03-15T01:43:27.362Z,22.86
2019-03-15T01:44:27.351Z,22.80
2019-03-15T01:45:27.362Z,22.92
2019-03-15T01:46:27.329Z,22.82
2019-03-15T01:47:27.319Z,22.78
2019-03-15T01:48:27.307Z,22.86
2019-03-15T01:49:27.296Z,22.82
2019-03-15T01:50:27.307Z,22.84
2019-03-15T01:51:27.273Z,22.77
2019-03-15T01:52:27.263Z,22.80
2019-03-15T01:53:27.263Z,22.84
2019-03-15T01:54:27.241Z,22.82
2019-03-15T01:55:27.251Z,22.82
2019-03-15T01:56:27.222Z,22.86
2019-03-15T01:57:27.206Z,22.83
2019-03-15T01:58:27.195Z,22.82
2019-03-15T01:59:27.184Z,22.94
2019-03-15T02:00:27.193Z,22.87
2019-03-15T02:01:27.162Z,22.87
2019-03-15T02:02:27.150Z,22.83
2019-03-15T02:03:27.140Z,22.77
2019-03-15T02:04:27.129Z,22.86
2019-03-15T02:05:27.138Z,22.77
2019-03-15T02:06:27.106Z,22.82
2019-03-15T02:07:27.095Z,22.82
2019-03-15T02:08:27.083Z,22.82
2019-03-15T02:09:27.072Z,22.82
2019-03-15T02:10:27.083Z,22.86
2019-03-15T02:11:27.051Z,22.87
2019-03-15T02:12:27.039Z,22.80
2019-03-15T02:13:27.031Z,22.80
2019-03-15T02:14:27.634Z,22.83
2019-03-15T02:15:27.027Z,22.83
2019-03-15T02:16:26.995Z,22.84
2019-03-15T02:17:26.986Z,22.84
2019-03-15T02:18:26.993Z,22.83
2019-03-15T02:19:26.962Z,22.84
2019-03-15T02:20:27.333Z,22.90
2019-03-15T02:21:26.943Z,22.80
2019-03-15T02:22:26.928Z,22.83
2019-03-15T02:23:26.916Z,22.83
2019-03-15T02:24:26.906Z,22.82
2019-03-15T02:25:27.463Z,22.77
2019-03-15T02:26:26.883Z,22.90
2019-03-15T02:27:26.871Z,22.80
2019-03-15T02:28:26.860Z,22.80
2019-03-15T02:29:26.850Z,22.82
2019-03-15T02:30:26.860Z,22.87
2019-03-15T02:31:26.827Z,22.87
2019-03-15T02:32:26.829Z,22.80
2019-03-15T02:33:26.821Z,22.82
2019-03-15T02:34:27.444Z,22.84
2019-03-15T02:35:26.809Z,22.90
2019-03-15T02:36:26.802Z,22.89
2019-03-15T02:37:26.760Z,22.87
2019-03-15T02:38:27.152Z,22.83
2019-03-15T02:39:26.741Z,22.87
2019-03-15T02:40:26.765Z,22.90
2019-03-15T02:41:26.715Z,22.90
2019-03-15T02:42:26.705Z,22.93
2019-03-15T02:43:26.693Z,22.93
2019-03-15T02:44:26.686Z,22.86
2019-03-15T02:45:26.674Z,22.78
2019-03-15T02:46:26.683Z,22.86
2019-03-15T02:47:26.649Z,22.83
2019-03-15T02:48:26.637Z,22.86
2019-03-15T02:49:26.629Z,22.86
2019-03-15T02:50:26.630Z,22.83
2019-03-15T02:51:26.628Z,22.82
2019-03-15T02:52:26.594Z,22.83
2019-03-15T02:53:26.584Z,22.84
2019-03-15T02:54:27.354Z,22.82
2019-03-15T02:55:26.565Z,22.86
2019-03-15T02:56:26.571Z,22.84
2019-03-15T02:57:26.539Z,22.90
2019-03-15T02:58:28.002Z,22.90
2019-03-15T02:59:26.516Z,22.83
2019-03-15T03:00:26.505Z,22.94
2019-03-15T03:01:26.519Z,22.80
2019-03-15T03:02:27.647Z,22.84
2019-03-15T03:03:26.474Z,22.78
2019-03-15T03:04:26.459Z,22.89
2019-03-15T03:05:26.448Z,22.86
2019-03-15T03:06:27.390Z,22.83
2019-03-15T03:07:26.427Z,22.82
2019-03-15T03:08:26.415Z,22.83
2019-03-15T03:09:26.421Z,22.86
2019-03-15T03:10:26.394Z,22.83
2019-03-15T03:11:26.405Z,22.82
2019-03-15T03:12:26.371Z,22.82
2019-03-15T03:13:26.361Z,22.83
2019-03-15T03:14:26.348Z,22.87
2019-03-15T03:15:26.449Z,22.84
2019-03-15T03:16:26.347Z,22.92
2019-03-15T03:17:26.315Z,22.87
2019-03-15T03:18:26.306Z,22.92
2019-03-15T03:19:26.388Z,22.92
2019-03-15T03:20:26.283Z,22.83
2019-03-15T03:21:26.296Z,22.97
2019-03-15T03:22:26.259Z,22.93
2019-03-15T03:23:26.248Z,22.94
2019-03-15T03:24:26.239Z,22.87
2019-03-15T03:25:26.225Z,22.89
2019-03-15T03:26:26.237Z,22.92
2019-03-15T03:27:26.203Z,22.94
2019-03-15T03:28:26.196Z,22.87
2019-03-15T03:29:26.182Z,22.94
2019-03-15T03:30:26.173Z,22.92
2019-03-15T03:31:26.194Z,22.84
2019-03-15T03:32:26.153Z,22.93
2019-03-15T03:33:26.138Z,22.93
2019-03-15T03:34:26.157Z,22.93
2019-03-15T03:35:26.115Z,22.93
2019-03-15T03:36:26.174Z,22.90
2019-03-15T03:37:26.118Z,22.92
2019-03-15T03:38:26.087Z,22.86
2019-03-15T03:39:26.069Z,22.86
2019-03-15T03:40:26.060Z,22.92
2019-03-15T03:41:26.049Z,22.87
2019-03-15T03:42:26.059Z,22.90
2019-03-15T03:43:26.026Z,22.96
2019-03-15T03:44:26.015Z,22.93
2019-03-15T03:45:26.004Z,22.83
2019-03-15T03:46:25.994Z,22.93
2019-03-15T03:47:26.003Z,22.90
2019-03-15T03:48:25.970Z,22.94
2019-03-15T03:49:25.959Z,22.96
2019-03-15T03:50:25.947Z,22.92
2019-03-15T03:51:25.937Z,22.94
2019-03-15T03:52:25.947Z,22.96
2019-03-15T03:53:25.914Z,22.96
2019-03-15T03:54:25.903Z,22.92
2019-03-15T03:55:25.891Z,22.94
2019-03-15T03:56:25.881Z,22.84
2019-03-15T03:57:25.891Z,22.87
2019-03-15T03:58:25.921Z,22.96
2019-03-15T03:59:25.852Z,22.92
2019-03-15T04:00:25.835Z,22.94
2019-03-15T04:01:25.826Z,22.84
2019-03-15T04:02:25.835Z,22.97
2019-03-15T04:03:25.803Z,22.92
2019-03-15T04:04:25.791Z,22.93
2019-03-15T04:05:25.781Z,22.90
2019-03-15T04:06:25.770Z,22.87
2019-03-15T04:07:25.792Z,22.89
2019-03-15T04:08:25.746Z,22.94
2019-03-15T04:09:25.736Z,22.97
2019-03-15T04:10:25.725Z,22.93
2019-03-15T04:11:25.714Z,22.90
2019-03-15T04:12:25.725Z,22.84
2019-03-15T04:13:25.691Z,22.99
2019-03-15T04:14:25.682Z,22.97
2019-03-15T04:15:25.674Z,22.94
2019-03-15T04:16:25.659Z,22.90
2019-03-15T04:17:25.672Z,22.89
2019-03-15T04:18:25.636Z,22.80
2019-03-15T04:19:25.625Z,22.87
2019-03-15T04:20:25.613Z,22.93
2019-03-15T04:21:25.602Z,22.89
2019-03-15T04:22:25.612Z,22.84
2019-03-15T04:23:25.582Z,22.90
2019-03-15T04:24:25.569Z,22.93
2019-03-15T04:25:25.579Z,22.89
2019-03-15T04:26:25.549Z,22.92
2019-03-15T04:27:25.535Z,22.93
2019-03-15T04:28:25.546Z,22.83
2019-03-15T04:29:25.514Z,22.93
2019-03-15T04:30:25.502Z,22.92
2019-03-15T04:31:25.491Z,22.93
2019-03-15T04:32:25.480Z,22.93
2019-03-15T04:33:25.491Z,22.94
2019-03-15T04:34:28.213Z,22.94
2019-03-15T04:35:25.447Z,22.94
2019-03-15T04:36:25.435Z,22.97
2019-03-15T04:37:25.424Z,22.94
2019-03-15T04:38:25.435Z,22.92
2019-03-15T04:39:25.402Z,22.96
2019-03-15T04:40:25.392Z,22.92
2019-03-15T04:41:25.383Z,22.89
2019-03-15T04:42:25.370Z,22.90
2019-03-15T04:43:25.378Z,22.87
2019-03-15T04:44:25.347Z,22.90
2019-03-15T04:45:25.335Z,22.89
2019-03-15T04:46:25.327Z,22.90
2019-03-15T04:47:25.314Z,22.94
2019-03-15T04:48:25.323Z,22.90
2019-03-15T04:49:25.307Z,22.92
2019-03-15T04:50:25.284Z,22.96
2019-03-15T04:51:25.273Z,22.92
2019-03-15T04:52:25.257Z,22.96
2019-03-15T04:53:25.268Z,22.90
2019-03-15T04:54:25.235Z,22.90
2019-03-15T04:55:25.224Z,22.89
2019-03-15T04:56:25.214Z,22.90
2019-03-15T04:57:25.205Z,22.92
2019-03-15T04:58:25.212Z,22.92
2019-03-15T04:59:25.180Z,22.90
2019-03-15T05:00:25.168Z,22.93
2019-03-15T05:01:25.158Z,22.93
2019-03-15T05:02:25.148Z,22.92
2019-03-15T05:03:25.155Z,23.02
2019-03-15T05:04:25.127Z,22.93
2019-03-15T05:05:25.112Z,22.90
2019-03-15T05:06:25.104Z,22.89
2019-03-15T05:07:25.094Z,22.93
2019-03-15T05:08:25.101Z,22.93
2019-03-15T05:09:25.071Z,22.93
2019-03-15T05:10:25.058Z,22.90
2019-03-15T05:11:25.054Z,22.97
2019-03-15T05:12:25.034Z,22.99
2019-03-15T05:13:25.045Z,22.97
2019-03-15T05:14:25.013Z,22.92
2019-03-15T05:15:25.005Z,22.84
2019-03-15T05:16:24.991Z,22.93
2019-03-15T05:17:24.981Z,22.93
2019-03-15T05:18:24.993Z,22.90
2019-03-15T05:19:24.959Z,22.93
2019-03-15T05:20:24.946Z,22.93
2019-03-15T05:21:24.934Z,22.94
2019-03-15T05:22:24.924Z,22.97
2019-03-15T05:23:24.913Z,22.94
2019-03-15T05:24:24.923Z,22.97
2019-03-15T05:25:24.891Z,22.93
2019-03-15T05:26:24.882Z,22.94
2019-03-15T05:27:24.868Z,22.93
2019-03-15T05:28:24.859Z,22.92
2019-03-15T05:29:24.868Z,22.90
2019-03-15T05:30:24.834Z,22.90
2019-03-15T05:31:24.823Z,22.96
2019-03-15T05:32:24.812Z,22.94
2019-03-15T05:33:24.802Z,22.87
2019-03-15T05:34:24.811Z,22.97
2019-03-15T05:35:24.781Z,22.94
2019-03-15T05:36:24.771Z,22.90
2019-03-15T05:37:24.760Z,22.90
2019-03-15T05:38:24.746Z,22.93
2019-03-15T05:39:24.758Z,22.90
2019-03-15T05:40:24.723Z,22.90
2019-03-15T05:41:24.713Z,22.94
2019-03-15T05:42:24.700Z,22.90
2019-03-15T05:43:24.690Z,22.89
2019-03-15T05:44:24.701Z,22.99
2019-03-15T05:45:24.668Z,22.93
2019-03-15T05:46:24.655Z,22.99
2019-03-15T05:47:24.645Z,22.93
2019-03-15T05:48:24.638Z,23.02
2019-03-15T05:49:24.646Z,22.94
2019-03-15T05:50:24.617Z,23.02
2019-03-15T05:51:24.601Z,22.99
2019-03-15T05:52:24.589Z,23.02
2019-03-15T05:53:24.584Z,22.99
2019-03-15T05:54:24.588Z,22.97
2019-03-15T05:55:24.562Z,22.92
2019-03-15T05:56:24.544Z,22.92
2019-03-15T05:57:24.533Z,22.97
2019-03-15T05:58:24.522Z,22.97
2019-03-15T05:59:24.532Z,22.94
2019-03-15T06:00:24.501Z,22.97
2019-03-15T06:01:24.489Z,22.97
2019-03-15T06:02:24.479Z,22.89
2019-03-15T06:03:24.467Z,22.94
2019-03-15T06:04:24.477Z,22.97
2019-03-15T06:05:24.444Z,22.97
2019-03-15T06:06:24.433Z,22.97
2019-03-15T06:07:24.425Z,22.96
2019-03-15T06:08:27.461Z,22.99
2019-03-15T06:09:24.421Z,22.93
2019-03-15T06:10:24.389Z,22.94
2019-03-15T06:11:24.381Z,22.90
2019-03-15T06:12:24.366Z,22.93
2019-03-15T06:13:24.360Z,22.93
2019-03-15T06:14:24.373Z,22.87
2019-03-15T06:15:24.334Z,22.82
2019-03-15T06:16:24.324Z,22.80
2019-03-15T06:17:24.311Z,22.93
2019-03-15T06:18:24.322Z,22.90
2019-03-15T06:19:24.288Z,22.90
2019-03-15T06:20:24.299Z,22.86
2019-03-15T06:21:24.266Z,22.89
2019-03-15T06:22:24.255Z,22.80
2019-03-15T06:23:24.245Z,22.83
2019-03-15T06:24:24.233Z,22.90
2019-03-15T06:25:24.244Z,22.94
2019-03-15T06:26:24.210Z,22.89
2019-03-15T06:27:24.200Z,22.86
2019-03-15T06:28:24.190Z,22.86
2019-03-15T06:29:24.177Z,22.93
2019-03-15T06:30:24.187Z,22.93
2019-03-15T06:31:24.155Z,22.94
2019-03-15T06:32:24.144Z,22.89
2019-03-15T06:33:24.133Z,22.97
2019-03-15T06:34:24.122Z,22.97
2019-03-15T06:35:24.132Z,23.02
2019-03-15T06:36:24.099Z,22.97
2019-03-15T06:37:24.088Z,22.92
2019-03-15T06:38:24.079Z,22.96
2019-03-15T06:39:24.066Z,22.96
2019-03-15T06:40:24.076Z,22.97
2019-03-15T06:41:24.045Z,23.02
2019-03-15T06:42:24.033Z,23.08
2019-03-15T06:43:24.021Z,23.09
2019-03-15T06:44:24.011Z,23.09
2019-03-15T06:45:24.022Z,23.09
2019-03-15T06:46:23.988Z,23.09
2019-03-15T06:47:23.977Z,23.14
2019-03-15T06:48:23.966Z,23.11
2019-03-15T06:49:23.955Z,23.15
2019-03-15T06:50:23.965Z,23.08
2019-03-15T06:51:23.933Z,23.11
2019-03-15T06:52:23.922Z,23.22
2019-03-15T06:53:23.910Z,23.24
2019-03-15T06:54:23.989Z,23.23
2019-03-15T06:55:23.947Z,23.20
2019-03-15T06:56:23.880Z,23.26
2019-03-15T06:57:23.871Z,23.27
2019-03-15T06:58:23.854Z,23.32
2019-03-15T06:59:23.844Z,23.38
2019-03-15T07:00:23.854Z,23.35
2019-03-15T07:01:24.131Z,23.35
2019-03-15T07:02:23.810Z,23.31
2019-03-15T07:03:23.798Z,23.39
2019-03-15T07:04:23.790Z,23.34
2019-03-15T07:05:23.816Z,23.31
2019-03-15T07:06:23.766Z,23.38
2019-03-15T07:07:23.757Z,23.26
2019-03-15T07:08:23.744Z,23.26
2019-03-15T07:09:23.733Z,23.26
2019-03-15T07:10:23.759Z,23.27
2019-03-15T07:11:23.710Z,23.31
2019-03-15T07:12:23.699Z,23.11
2019-03-15T07:13:23.689Z,23.15
2019-03-15T07:14:23.684Z,23.23
2019-03-15T07:15:23.666Z,23.24
2019-03-15T07:16:23.675Z,23.14
2019-03-15T07:17:23.648Z,22.93
2019-03-15T07:18:23.633Z,22.77
2019-03-15T07:19:27.502Z,22.50
2019-03-15T07:20:24.609Z,22.20
2019-03-15T07:21:23.621Z,21.99
2019-03-15T07:22:23.587Z,21.72
2019-03-15T07:23:23.576Z,21.44
2019-03-15T07:24:25.518Z,21.36
2019-03-15T07:25:23.554Z,21.26
2019-03-15T07:26:23.567Z,21.13
2019-03-15T07:27:23.534Z,20.91
2019-03-15T07:28:23.521Z,20.87
2019-03-15T07:29:23.511Z,20.84
2019-03-15T07:30:23.498Z,20.91
2019-03-15T07:31:23.508Z,20.95
2019-03-15T07:32:23.583Z,21.06
2019-03-15T07:33:23.477Z,21.09
2019-03-15T07:34:23.455Z,21.23
2019-03-15T07:35:23.445Z,21.19
2019-03-15T07:36:23.453Z,21.20
2019-03-15T07:37:23.421Z,21.17
2019-03-15T07:38:23.409Z,21.24
2019-03-15T07:39:26.451Z,21.06
2019-03-15T07:40:23.388Z,21.09
2019-03-15T07:41:25.415Z,21.01
2019-03-15T07:42:23.364Z,20.90
2019-03-15T07:43:23.354Z,20.91
2019-03-15T07:44:23.343Z,21.01
2019-03-15T07:45:23.332Z,20.93
2019-03-15T07:46:23.342Z,21.01
2019-03-15T07:47:23.314Z,20.87
2019-03-15T07:48:26.584Z,20.83
2019-03-15T07:49:23.287Z,20.68
2019-03-15T07:50:23.276Z,20.59
2019-03-15T07:51:23.287Z,20.43
2019-03-15T07:52:23.254Z,20.34
2019-03-15T07:53:23.243Z,20.28
2019-03-15T07:54:23.231Z,20.28
2019-03-15T07:55:23.220Z,20.30
2019-03-15T07:56:23.229Z,20.43
2019-03-15T07:57:23.200Z,20.34
2019-03-15T07:58:23.187Z,20.43
2019-03-15T07:59:23.177Z,20.46
2019-03-15T08:00:23.164Z,20.51
2019-03-15T08:01:23.176Z,20.43
2019-03-15T08:02:23.143Z,20.34
2019-03-15T08:03:23.136Z,20.34
2019-03-15T08:04:23.150Z,20.28
2019-03-15T08:05:23.108Z,20.25
2019-03-15T08:06:34.039Z,20.15
2019-03-15T08:07:35.837Z,20.12
2019-03-15T08:08:24.108Z,20.10
2019-03-15T08:09:23.065Z,20.02
2019-03-15T08:10:23.064Z,19.90
2019-03-15T08:11:23.041Z,19.73
2019-03-15T08:12:23.052Z,19.73
2019-03-15T08:13:23.020Z,19.61
2019-03-15T08:14:23.009Z,19.58
2019-03-15T08:15:23.008Z,19.55
2019-03-15T08:16:22.990Z,19.58
2019-03-15T08:17:22.995Z,19.58
2019-03-15T08:18:22.963Z,19.53
2019-03-15T08:19:22.953Z,19.38
2019-03-15T08:20:23.047Z,19.35
2019-03-15T08:21:22.968Z,19.23
2019-03-15T08:22:22.940Z,19.23
2019-03-15T08:23:22.978Z,19.11
2019-03-15T08:24:22.895Z,18.87
2019-03-15T08:25:22.909Z,18.74
2019-03-15T08:26:22.872Z,18.73
2019-03-15T08:27:22.895Z,18.65
2019-03-15T08:28:22.859Z,18.70
2019-03-15T08:29:22.838Z,18.72
2019-03-15T08:30:22.828Z,18.76
2019-03-15T08:31:23.422Z,18.79
2019-03-15T08:32:22.827Z,18.92
2019-03-15T08:33:22.878Z,18.99
2019-03-15T08:34:22.875Z,19.10
2019-03-15T08:35:24.543Z,19.18
2019-03-15T08:36:22.759Z,19.21
2019-03-15T08:37:22.771Z,19.29
2019-03-15T08:38:22.737Z,19.40
2019-03-15T08:39:22.727Z,19.43
2019-03-15T08:40:25.709Z,19.51
2019-03-15T08:41:22.705Z,19.57
2019-03-15T08:42:22.722Z,19.61
2019-03-15T08:43:22.682Z,19.80
2019-03-15T08:44:22.669Z,19.94
2019-03-15T08:45:22.675Z,20.18
2019-03-15T08:46:22.648Z,20.34
2019-03-15T08:47:22.674Z,20.72
2019-03-15T08:48:22.658Z,20.90
2019-03-15T08:49:22.615Z,21.04
2019-03-15T08:50:24.556Z,21.27
2019-03-15T08:51:22.654Z,21.51
2019-03-15T08:52:22.600Z,21.67
2019-03-15T08:53:22.567Z,21.75
2019-03-15T08:54:22.556Z,21.56
2019-03-15T08:55:22.548Z,21.42
2019-03-15T08:56:22.535Z,21.32
2019-03-15T08:57:22.566Z,21.17
2019-03-15T08:58:22.687Z,21.17
2019-03-15T08:59:22.506Z,21.27
2019-03-15T09:00:22.494Z,21.45
2019-03-15T09:01:23.923Z,21.50
2019-03-15T09:02:22.480Z,21.51
2019-03-15T09:03:28.015Z,21.72
2019-03-15T09:04:23.443Z,21.79
2019-03-15T09:05:22.433Z,21.99
2019-03-15T09:06:22.427Z,22.04
2019-03-15T09:07:22.440Z,22.14
2019-03-15T09:08:22.424Z,22.17
2019-03-15T09:09:22.401Z,22.14
2019-03-15T09:10:24.042Z,22.29
2019-03-15T09:11:22.364Z,22.41
2019-03-15T09:12:22.359Z,22.44
2019-03-15T09:13:22.363Z,22.56
2019-03-15T09:14:22.351Z,22.64
2019-03-15T09:15:22.319Z,22.57
2019-03-15T09:16:22.308Z,22.69
2019-03-15T09:17:22.331Z,22.64
2019-03-15T09:18:22.308Z,22.65
2019-03-15T09:19:22.276Z,22.78
2019-03-15T09:20:22.263Z,22.77
2019-03-15T09:21:22.260Z,22.83
2019-03-15T09:22:22.239Z,22.77
2019-03-15T09:23:22.259Z,22.87
2019-03-15T09:24:22.245Z,22.80
2019-03-15T09:25:22.207Z,22.83
2019-03-15T09:26:22.193Z,22.83
2019-03-15T09:27:22.232Z,22.83
2019-03-15T09:28:22.207Z,22.83
2019-03-15T09:29:22.160Z,22.83
2019-03-15T09:30:24.398Z,22.86
2019-03-15T09:31:22.146Z,22.94
2019-03-15T09:32:22.131Z,22.96
2019-03-15T09:33:22.300Z,22.97
2019-03-15T09:34:22.108Z,22.94
2019-03-15T09:35:22.093Z,22.90
2019-03-15T09:36:22.081Z,22.92
2019-03-15T09:37:22.071Z,23.04
2019-03-15T09:38:22.083Z,22.94
2019-03-15T09:39:22.051Z,23.05
2019-03-15T09:40:25.322Z,23.09
2019-03-15T09:41:31.859Z,23.08
2019-03-15T09:42:23.015Z,23.15
2019-03-15T09:43:22.125Z,23.11
2019-03-15T09:44:22.214Z,23.15
2019-03-15T09:45:21.981Z,23.17
2019-03-15T09:46:22.123Z,23.23
2019-03-15T09:47:21.964Z,23.19
2019-03-15T09:48:21.974Z,23.15
2019-03-15T09:49:21.946Z,23.23
2019-03-15T09:50:33.852Z,23.29
2019-03-15T09:51:22.917Z,23.26
2019-03-15T09:52:21.932Z,23.22
2019-03-15T09:53:21.957Z,23.26
2019-03-15T09:54:21.907Z,23.26
2019-03-15T09:55:32.170Z,23.27
2019-03-15T09:56:22.885Z,23.32
2019-03-15T09:57:21.848Z,23.29
2019-03-15T09:58:21.918Z,23.23
2019-03-15T09:59:21.903Z,23.23
2019-03-15T10:00:21.877Z,23.31
2019-03-15T10:01:34.331Z,23.24
2019-03-15T10:02:30.167Z,23.27
2019-03-15T10:03:22.837Z,23.22
2019-03-15T10:04:21.797Z,23.31
2019-03-15T10:05:21.812Z,23.29
2019-03-15T10:06:21.750Z,23.26
2019-03-15T10:07:21.854Z,23.26
2019-03-15T10:08:23.601Z,23.27
2019-03-15T10:09:21.880Z,23.23
2019-03-15T10:10:21.704Z,23.24
2019-03-15T10:11:21.697Z,23.35
2019-03-15T10:12:21.683Z,23.27
2019-03-15T10:13:21.710Z,23.27
2019-03-15T10:14:21.698Z,23.26
2019-03-15T10:15:21.650Z,23.26
2019-03-15T10:16:21.636Z,23.26
2019-03-15T10:17:23.098Z,23.26
2019-03-15T10:18:21.619Z,23.27
2019-03-15T10:19:21.695Z,23.23
2019-03-15T10:20:21.592Z,23.23
2019-03-15T10:21:21.627Z,23.29
2019-03-15T10:22:21.570Z,23.29
2019-03-15T10:23:21.560Z,23.31
2019-03-15T10:24:21.569Z,23.24
2019-03-15T10:25:21.537Z,23.26
2019-03-15T10:26:21.574Z,23.29
2019-03-15T10:27:21.520Z,23.35
2019-03-15T10:28:21.516Z,23.38
2019-03-15T10:29:21.512Z,23.40
2019-03-15T10:30:21.480Z,23.34
2019-03-15T10:31:21.470Z,23.39
2019-03-15T10:32:21.463Z,23.40
2019-03-15T10:33:21.451Z,23.43
2019-03-15T10:34:26.531Z,23.39
2019-03-15T10:35:21.428Z,23.55
2019-03-15T10:36:22.779Z,23.50
2019-03-15T10:37:21.402Z,23.55
2019-03-15T10:38:21.392Z,23.55
2019-03-15T10:39:21.402Z,23.52
2019-03-15T10:40:21.370Z,23.57
2019-03-15T10:41:21.363Z,23.57
2019-03-15T10:42:21.350Z,23.65
2019-03-15T10:43:21.337Z,23.62
2019-03-15T10:44:21.363Z,23.61
2019-03-15T10:45:21.318Z,23.62
2019-03-15T10:46:21.336Z,23.60
2019-03-15T10:47:21.293Z,23.70
2019-03-15T10:48:25.528Z,23.70
2019-03-15T10:49:21.271Z,23.64
2019-03-15T10:50:21.279Z,23.65
2019-03-15T10:51:21.266Z,23.68
2019-03-15T10:52:21.236Z,23.70
2019-03-15T10:53:21.227Z,23.64
2019-03-15T10:54:21.215Z,23.71
2019-03-15T10:55:21.226Z,23.65
2019-03-15T10:56:21.198Z,23.64
2019-03-15T10:57:21.184Z,23.65
2019-03-15T10:58:21.202Z,23.57
2019-03-15T10:59:21.170Z,23.61
2019-03-15T11:00:21.170Z,23.64
2019-03-15T11:01:21.136Z,23.65
2019-03-15T11:02:21.125Z,23.61
2019-03-15T11:03:21.115Z,23.58
2019-03-15T11:04:21.127Z,23.61
2019-03-15T11:05:21.123Z,23.58
2019-03-15T11:06:21.089Z,23.57
2019-03-15T11:07:21.070Z,23.50
2019-03-15T11:08:24.090Z,23.55
2019-03-15T11:09:21.058Z,23.52
2019-03-15T11:10:21.064Z,23.49
2019-03-15T11:11:21.028Z,23.49
2019-03-15T11:12:21.020Z,23.53
2019-03-15T11:13:21.014Z,23.46
2019-03-15T11:14:20.991Z,23.46
2019-03-15T11:15:21.004Z,23.50
2019-03-15T11:16:20.975Z,23.52
2019-03-15T11:17:20.960Z,23.55
2019-03-15T11:18:20.953Z,23.50
2019-03-15T11:19:20.944Z,23.57
2019-03-15T11:20:20.947Z,23.49
2019-03-15T11:21:20.915Z,23.53
2019-03-15T11:22:20.906Z,23.52
2019-03-15T11:23:20.892Z,23.53
2019-03-15T11:24:20.883Z,23.55
2019-03-15T11:25:20.943Z,23.60
2019-03-15T11:26:20.859Z,23.61
2019-03-15T11:27:20.891Z,23.62
2019-03-15T11:28:20.840Z,23.55
2019-03-15T11:29:20.827Z,23.58
2019-03-15T11:30:20.844Z,23.57
2019-03-15T11:31:20.804Z,23.65
2019-03-15T11:32:20.813Z,23.50
2019-03-15T11:33:20.782Z,23.58
2019-03-15T11:34:20.783Z,23.64
2019-03-15T11:35:21.537Z,23.64
2019-03-15T11:36:20.748Z,23.62
2019-03-15T11:37:20.742Z,23.72
2019-03-15T11:38:20.735Z,23.65
2019-03-15T11:39:20.714Z,23.46
2019-03-15T11:40:20.737Z,23.07
2019-03-15T11:41:20.693Z,22.84
2019-03-15T11:42:20.683Z,22.46
2019-03-15T11:43:20.711Z,22.10
2019-03-15T11:44:20.659Z,21.75
2019-03-15T11:45:20.650Z,21.45
2019-03-15T11:46:20.683Z,21.27
2019-03-15T11:47:20.645Z,21.29
2019-03-15T11:48:20.616Z,21.38
2019-03-15T11:49:20.604Z,21.39
2019-03-15T11:50:20.600Z,21.51
2019-03-15T11:51:20.605Z,21.64
2019-03-15T11:52:20.575Z,21.76
2019-03-15T11:53:20.558Z,21.79
2019-03-15T11:54:20.547Z,21.92
2019-03-15T11:55:20.554Z,22.10
2019-03-15T11:56:26.840Z,22.17
2019-03-15T11:57:21.513Z,22.20
2019-03-15T11:58:20.504Z,22.32
2019-03-15T11:59:20.493Z,22.34
2019-03-15T12:00:20.480Z,22.50
2019-03-15T12:01:20.491Z,22.59
2019-03-15T12:02:20.460Z,22.62
2019-03-15T12:03:20.450Z,22.69
2019-03-15T12:04:20.437Z,22.67
2019-03-15T12:05:20.427Z,22.74
2019-03-15T12:06:20.435Z,22.80
2019-03-15T12:07:20.403Z,22.86
2019-03-15T12:08:20.393Z,22.83
2019-03-15T12:09:20.381Z,22.80
2019-03-15T12:10:20.369Z,22.93
2019-03-15T12:11:20.379Z,22.90
2019-03-15T12:12:21.702Z,22.89
2019-03-15T12:13:20.337Z,22.93
2019-03-15T12:14:20.326Z,23.01
2019-03-15T12:15:20.323Z,23.08
2019-03-15T12:16:20.325Z,23.05
2019-03-15T12:17:20.292Z,23.02
2019-03-15T12:18:20.282Z,23.07
2019-03-15T12:19:20.271Z,23.11
2019-03-15T12:20:20.260Z,23.09
2019-03-15T12:21:20.273Z,23.12
2019-03-15T12:22:20.236Z,23.12
2019-03-15T12:23:20.225Z,23.11
2019-03-15T12:24:20.215Z,23.14
2019-03-15T12:25:20.203Z,23.08
2019-03-15T12:26:20.213Z,23.12
2019-03-15T12:27:20.181Z,23.17
2019-03-15T12:28:20.169Z,23.26
2019-03-15T12:29:20.158Z,23.24
2019-03-15T12:30:20.148Z,23.15
2019-03-15T12:31:20.159Z,23.26
2019-03-15T12:32:20.125Z,23.26
2019-03-15T12:33:20.115Z,23.34
2019-03-15T12:34:20.104Z,23.26
2019-03-15T12:35:20.095Z,23.26
2019-03-15T12:36:20.103Z,23.27
2019-03-15T12:37:20.069Z,23.26
2019-03-15T12:38:20.058Z,23.23
2019-03-15T12:39:20.048Z,23.35
2019-03-15T12:40:20.058Z,23.22
2019-03-15T12:41:20.027Z,23.34
2019-03-15T12:42:20.035Z,23.26
2019-03-15T12:43:20.003Z,23.31
2019-03-15T12:44:19.992Z,23.34
2019-03-15T12:45:19.981Z,23.39
2019-03-15T12:46:19.970Z,23.31
2019-03-15T12:47:19.983Z,23.34
2019-03-15T12:48:19.962Z,23.34
2019-03-15T12:49:19.937Z,23.34
2019-03-15T12:50:19.926Z,23.35
2019-03-15T12:51:31.537Z,23.31
2019-03-15T12:52:20.925Z,23.35